This is the latest recevied weather packets stored in our database for station/object VE2XOX. If no packets are shown the sender has not sent any weather packets the latest 10 day(s).
| Time | Temp. | Humidity | Pressure | Rain* | Wind** | Luminosity | Snow |
|---|---|---|---|---|---|---|---|
| 1778001036 | 15° C | 88% | 998.6 hPa | 16 mm | - | - | - |
| 1778000721 | 15° C | 87% | 998.5 hPa | 14.99 mm | - | - | - |
| 1778000417 | 15° C | 87% | 998.6 hPa | 13.97 mm | - | - | - |
| 1778000129 | 15° C | 86% | 998.6 hPa | 12.95 mm | - | - | - |
| 1777999813 | 15° C | 85% | 998.7 hPa | 12.95 mm | - | - | - |
| 1777999519 | 15.56° C | 84% | 998.9 hPa | 12.95 mm | - | - | - |
| 1777999228 | 16.11° C | 82% | 999 hPa | 7.87 mm | - | - | - |
| 1777998914 | 16.11° C | 79% | 998.9 hPa | 4.06 mm | - | - | - |
| 1777998619 | 16.67° C | 76% | 998.8 hPa | 0 mm | - | - | - |
| 1777998330 | 17.22° C | 74% | 998.8 hPa | 0 mm | - | - | - |
| 1777998016 | 17.22° C | 73% | 998.9 hPa | 0 mm | - | - | - |
| 1777997719 | 17.22° C | 72% | 998.9 hPa | 0 mm | - | - | - |
| 1777997429 | 17.78° C | 72% | 999.1 hPa | 0 mm | - | - | - |
| 1777997116 | 17.78° C | 71% | 999.1 hPa | 0 mm | - | - | - |
| 1777996820 | 17.78° C | 70% | 999.2 hPa | 0 mm | - | - | - |
| 1777996531 | 17.78° C | 69% | 999.3 hPa | 0 mm | - | - | - |
| 1777996215 | 18.33° C | 67% | 999.3 hPa | 0 mm | - | - | - |
| 1777995919 | 18.89° C | 66% | 999.2 hPa | 0 mm | - | - | - |
| 1777995628 | 19.44° C | 63% | 999.1 hPa | 0 mm | - | - | - |
| 1777995316 | 19.44° C | 56% | 998.9 hPa | 0 mm | - | - | - |
| 1777995017 | 19.44° C | 57% | 998.9 hPa | 0 mm | - | - | - |
| 1777994720 | 18.89° C | 57% | 998.8 hPa | 0 mm | - | - | - |
| 1777994428 | 18.89° C | 57% | 999 hPa | 0 mm | - | - | - |
| 1777994130 | 18.33° C | 58% | 999.1 hPa | 0 mm | - | - | - |
| 1777993814 | 17.78° C | 59% | 999.2 hPa | 0 mm | - | - | - |
* Rain latest hour (hover to see other rain measurements)
** Current wind speed in m/s (hover to see current wind gust speed)